Terminal Aerodrome Forecast
Issued by NWS

Home | Current Version | Previous Version | Text Only | Print | Product List | Glossary Off
Versions: 1 2 3 4 5 6 7 8 9 10 11 12 13 14 15 16 17 18 19 20 21 22 23 24 25 26 27 28 29 30 31 32 33 34 35 36 37 38 39 40 41

000
FTUS43 KGRB 191400 AAA
TAFRHI
TAF AMD
KRHI 191413Z 1914/2012 VRB03KT 1/2SM FG VV002
      TEMPO 1914/1915 1SM BR OVC003
     FM191500 18003KT 6SM BR OVC010
      TEMPO 1918/1922 SCT020 BKN060
     FM200200 20003KT 4SM BR BKN012 OVC050=

USA.gov is the U.S. government's official web portal to all federal, state and local government web resources and services.